Time;durP1;ratioP1;P1;durP2;ratioP2;P2;SDS_P1;SDS_P2;PMS_P1;PMS_P2;Temp;Humidity;BMP_temperature;BMP_pressure;BME280_temperature;BME280_humidity;BME280_pressure;Samples;Min_cycle;Max_cycle;Signal;HPM_P1;HPM_P2
2023/03/04 00:02:02;;;;;;;15.18;13.65;;;19.50;48.40;;;;;;5035016;28;20221;-68
2023/03/04 00:04:28;;;;;;;15.90;14.30;;;19.40;48.30;;;;;;5016699;28;20226;-69
2023/03/04 00:06:54;;;;;;;16.65;14.95;;;19.40;48.30;;;;;;5032508;28;20238;-68
2023/03/04 00:09:20;;;;;;;15.52;13.93;;;19.40;48.30;;;;;;5032626;28;20195;-68
2023/03/04 00:11:46;;;;;;;15.40;13.85;;;19.40;48.20;;;;;;5040871;28;20213;-68
2023/03/04 00:14:12;;;;;;;16.58;14.88;;;19.40;48.20;;;;;;5069304;28;20194;-68
2023/03/04 00:16:37;;;;;;;16.30;14.70;;;19.40;48.20;;;;;;5069511;28;20649;-70
2023/03/04 00:19:03;;;;;;;15.93;14.27;;;19.40;48.20;;;;;;5033038;28;20230;-69
2023/03/04 00:21:30;;;;;;;16.33;14.55;;;19.40;48.20;;;;;;5050739;28;20187;-69
2023/03/04 00:23:56;;;;;;;15.32;13.75;;;19.40;48.20;;;;;;5032180;28;20190;-69
2023/03/04 00:26:21;;;;;;;16.50;14.80;;;19.40;48.20;;;;;;5045329;28;20259;-68
2023/03/04 00:28:47;;;;;;;16.20;14.60;;;19.40;48.20;;;;;;5027485;28;20203;-68
2023/03/04 00:31:13;;;;;;;16.83;14.55;;;19.40;48.20;;;;;;5032500;28;20248;-69
2023/03/04 00:33:39;;;;;;;16.40;14.55;;;19.40;48.20;;;;;;5032232;28;20215;-68
2023/03/04 00:36:05;;;;;;;15.90;14.25;;;19.40;48.20;;;;;;5032172;28;20354;-68
2023/03/04 00:38:31;;;;;;;15.68;14.07;;;19.40;48.20;;;;;;5046465;28;20218;-69
2023/03/04 00:40:57;;;;;;;14.65;13.20;;;19.40;48.20;;;;;;5032572;28;20222;-68
2023/03/04 00:43:23;;;;;;;15.63;14.02;;;19.40;48.20;;;;;;5016020;28;20219;-68
2023/03/04 00:45:49;;;;;;;15.63;14.02;;;19.40;48.20;;;;;;5041271;28;20195;-69
2023/03/04 00:48:15;;;;;;;14.68;13.18;;;19.40;48.20;;;;;;5043136;28;20214;-69
2023/03/04 00:50:42;;;;;;;14.63;13.15;;;19.40;48.20;;;;;;5028473;28;20194;-69
2023/03/04 00:53:09;;;;;;;14.88;13.27;;;19.30;48.10;;;;;;5024174;28;20207;-69
2023/03/04 00:55:35;;;;;;;14.85;13.38;;;19.40;48.20;;;;;;5032412;28;20187;-69
2023/03/04 00:58:02;;;;;;;14.80;13.30;;;19.30;48.10;;;;;;5050538;28;20238;-68
2023/03/04 01:00:28;;;;;;;14.73;12.82;;;19.30;48.00;;;;;;5032357;28;20190;-69
2023/03/04 01:02:54;;;;;;;14.55;13.10;;;19.30;48.10;;;;;;5063878;28;20194;-69
2023/03/04 01:05:20;;;;;;;14.55;13.05;;;19.40;48.20;;;;;;5047293;28;20191;-69
2023/03/04 01:07:45;;;;;;;14.60;13.10;;;19.40;48.10;;;;;;5015263;28;20214;-68
2023/03/04 01:10:14;;;;;;;14.82;13.32;;;19.30;48.00;;;;;;5052094;28;20285;-68
2023/03/04 01:12:41;;;;;;;14.80;13.30;;;19.30;48.00;;;;;;5023788;28;20261;-69
2023/03/04 01:15:10;;;;;;;15.73;14.13;;;19.30;48.00;;;;;;5031656;28;20198;-69
2023/03/04 01:17:38;;;;;;;15.15;13.55;;;19.40;48.10;;;;;;5015267;28;20215;-69
2023/03/04 01:20:06;;;;;;;14.20;12.80;;;19.30;48.00;;;;;;5023566;28;20182;-68
2023/03/04 01:22:32;;;;;;;15.23;13.63;;;19.30;48.00;;;;;;5046118;28;20201;-68
2023/03/04 01:24:58;;;;;;;14.55;13.15;;;19.30;48.00;;;;;;5033156;28;20282;-68
2023/03/04 01:27:25;;;;;;;15.10;13.63;;;19.40;48.10;;;;;;5034881;28;20211;-69
2023/03/04 01:29:51;;;;;;;13.95;12.55;;;19.40;48.10;;;;;;5031682;28;20195;-69
2023/03/04 01:32:16;;;;;;;13.95;12.48;;;19.40;48.10;;;;;;5043632;28;20281;-69
2023/03/04 01:34:42;;;;;;;14.48;13.05;;;19.30;48.00;;;;;;5043843;28;20214;-69
2023/03/04 01:37:09;;;;;;;14.48;12.98;;;19.30;48.00;;;;;;5031031;28;20191;-68
2023/03/04 01:39:35;;;;;;;14.38;12.80;;;19.40;48.10;;;;;;5031692;28;20184;-69
2023/03/04 01:42:01;;;;;;;13.73;12.43;;;19.30;48.00;;;;;;5031101;28;20198;-69
2023/03/04 01:44:27;;;;;;;13.65;12.25;;;19.30;48.00;;;;;;5031017;28;20199;-68
2023/03/04 01:46:55;;;;;;;13.85;12.55;;;19.30;48.00;;;;;;5039095;28;20187;-68
2023/03/04 01:49:23;;;;;;;13.50;12.18;;;19.30;47.90;;;;;;5020076;28;20284;-69
2023/03/04 01:51:53;;;;;;;13.77;12.48;;;19.30;48.00;;;;;;5042013;28;20600;-69
2023/03/04 01:54:21;;;;;;;14.10;12.57;;;19.30;47.90;;;;;;5014590;28;20187;-68
2023/03/04 01:56:51;;;;;;;13.93;12.52;;;19.30;47.90;;;;;;5047033;28;20654;-69
2023/03/04 01:59:20;;;;;;;14.55;13.15;;;19.30;47.90;;;;;;5014193;28;20261;-69
2023/03/04 02:01:53;;;;;;;15.02;13.50;;;19.30;47.90;;;;;;5038639;28;20280;-68
2023/03/04 02:04:24;;;;;;;15.05;13.55;;;19.30;47.90;;;;;;5059898;28;20198;-68
2023/03/04 02:06:51;;;;;;;14.40;12.90;;;19.30;47.90;;;;;;5033953;28;20186;-69
2023/03/04 02:09:18;;;;;;;15.13;13.63;;;19.30;47.90;;;;;;5030883;28;20187;-68
2023/03/04 02:11:45;;;;;;;14.35;12.93;;;19.30;47.90;;;;;;5046940;28;20211;-68
2023/03/04 02:14:14;;;;;;;14.13;12.63;;;19.30;47.90;;;;;;5014613;28;20183;-69
2023/03/04 02:16:41;;;;;;;13.68;12.27;;;19.30;47.90;;;;;;5014078;28;20183;-69
2023/03/04 02:19:22;;;;;;;13.60;12.30;;;19.30;47.90;;;;;;5014265;28;20246;-68
2023/03/04 02:21:48;;;;;;;13.50;12.07;;;19.30;48.50;;;;;;5030414;28;20191;-69
2023/03/04 02:24:55;;;;;;;14.23;12.77;;;19.30;47.90;;;;;;5030411;28;20201;-69
2023/03/04 02:27:22;;;;;;;14.43;12.93;;;19.30;47.80;;;;;;5016713;28;20245;-69
2023/03/04 02:29:48;;;;;;;13.68;12.38;;;19.30;47.80;;;;;;5031022;28;20270;-69
2023/03/04 02:32:15;;;;;;;14.60;13.10;;;19.20;47.70;;;;;;5030357;28;20295;-69
2023/03/04 02:34:48;;;;;;;13.57;12.18;;;19.30;47.80;;;;;;5034717;28;20274;-69
2023/03/04 02:37:15;;;;;;;13.82;12.43;;;19.30;47.80;;;;;;5046845;28;20290;-68
2023/03/04 02:39:46;;;;;;;14.18;12.68;;;19.30;47.80;;;;;;5030671;28;20249;-69
2023/03/04 02:42:12;;;;;;;14.35;12.85;;;19.30;47.80;;;;;;5030883;28;20210;-69
2023/03/04 02:44:46;;;;;;;13.20;11.80;;;19.30;47.80;;;;;;5037946;28;20191;-69
2023/03/04 02:47:18;;;;;;;12.70;11.40;;;19.30;47.80;;;;;;5019282;28;20245;-68
2023/03/04 02:49:45;;;;;;;12.98;11.77;;;19.20;47.70;;;;;;5014218;28;20191;-68
2023/03/04 02:52:21;;;;;;;12.75;11.55;;;19.30;47.80;;;;;;5013842;28;20218;-68
2023/03/04 02:54:47;;;;;;;12.77;11.48;;;19.30;47.80;;;;;;5030163;28;20183;-69
2023/03/04 02:57:14;;;;;;;13.95;12.43;;;19.20;47.70;;;;;;5013563;28;20242;-68
2023/03/04 02:59:43;;;;;;;14.32;12.65;;;19.20;47.60;;;;;;5029321;28;20194;-68
2023/03/04 03:02:14;;;;;;;13.48;12.02;;;19.30;47.70;;;;;;5025350;28;20669;-69
2023/03/04 03:04:40;;;;;;;14.18;12.68;;;19.30;47.70;;;;;;5029314;28;20198;-69
2023/03/04 03:07:09;;;;;;;13.25;11.95;;;19.20;47.60;;;;;;5049026;28;20244;-69
2023/03/04 03:09:35;;;;;;;13.60;12.25;;;19.20;47.60;;;;;;5018906;28;20199;-69
2023/03/04 03:12:01;;;;;;;13.10;11.82;;;19.30;47.70;;;;;;5035137;28;20226;-68
2023/03/04 03:14:29;;;;;;;13.57;12.18;;;19.30;47.70;;;;;;5046944;28;20241;-68
2023/03/04 03:16:55;;;;;;;15.90;14.27;;;19.20;47.50;;;;;;5028652;28;20187;-68
2023/03/04 03:19:20;;;;;;;15.00;13.07;;;19.30;47.70;;;;;;5032641;28;20187;-68
2023/03/04 03:21:46;;;;;;;13.88;12.48;;;19.20;47.60;;;;;;5042305;28;20194;-68
2023/03/04 03:24:12;;;;;;;14.30;12.90;;;19.20;47.60;;;;;;5037147;28;20198;-69
2023/03/04 03:26:38;;;;;;;13.60;12.20;;;19.20;47.60;;;;;;5045315;28;20205;-69
2023/03/04 03:29:04;;;;;;;13.65;12.18;;;19.20;47.50;;;;;;5027642;28;20215;-69
2023/03/04 03:31:30;;;;;;;13.55;12.13;;;19.30;47.60;;;;;;5033938;28;20226;-68
2023/03/04 03:33:56;;;;;;;13.52;12.13;;;19.20;47.50;;;;;;5068057;28;20228;-68
2023/03/04 03:36:22;;;;;;;14.23;12.73;;;19.20;47.60;;;;;;5024032;28;20179;-68
2023/03/04 03:38:48;;;;;;;13.77;12.38;;;19.20;47.60;;;;;;5046677;28;20690;-68
2023/03/04 03:41:13;;;;;;;13.40;12.00;;;19.20;47.50;;;;;;5061979;28;20182;-69
2023/03/04 03:43:39;;;;;;;13.95;12.45;;;19.20;48.10;;;;;;5069992;28;20198;-69
2023/03/04 03:46:05;;;;;;;13.68;12.27;;;19.20;47.50;;;;;;5044854;28;20186;-68
2023/03/04 03:48:31;;;;;;;13.55;12.25;;;19.20;47.50;;;;;;5036777;28;20222;-68
2023/03/04 03:50:56;;;;;;;14.50;13.00;;;19.20;47.50;;;;;;5034172;28;20180;-68
2023/03/04 03:53:22;;;;;;;13.52;11.38;;;19.20;47.50;;;;;;5025211;28;20249;-68
2023/03/04 03:55:48;;;;;;;13.38;12.05;;;19.20;47.50;;;;;;5038259;28;20256;-68
2023/03/04 03:58:14;;;;;;;13.52;12.13;;;19.20;47.50;;;;;;5052908;28;20221;-69
2023/03/04 04:00:40;;;;;;;15.48;12.25;;;19.20;47.50;;;;;;5036367;28;20190;-68
2023/03/04 04:03:05;;;;;;;14.68;13.18;;;19.20;47.50;;;;;;5028069;28;20187;-69
2023/03/04 04:05:31;;;;;;;14.35;12.82;;;19.10;47.40;;;;;;5022032;28;20210;-68
2023/03/04 04:07:57;;;;;;;14.43;13.02;;;19.20;47.50;;;;;;5032356;28;20207;-69
2023/03/04 04:10:23;;;;;;;14.13;12.73;;;19.20;47.50;;;;;;5033244;28;20203;-69
2023/03/04 04:12:49;;;;;;;14.77;13.27;;;19.20;47.50;;;;;;5054423;28;20218;-68
2023/03/04 04:15:15;;;;;;;14.93;13.43;;;19.20;47.50;;;;;;5036334;28;20202;-69
2023/03/04 04:17:40;;;;;;;14.88;13.38;;;19.20;47.50;;;;;;5037127;28;20211;-69
2023/03/04 04:20:08;;;;;;;14.18;12.65;;;19.20;47.50;;;;;;5043507;28;20283;-68
2023/03/04 04:22:34;;;;;;;13.93;12.50;;;19.20;47.40;;;;;;5021639;28;20191;-68
2023/03/04 04:25:00;;;;;;;13.32;11.95;;;19.20;47.50;;;;;;5042613;28;20191;-70
2023/03/04 04:27:26;;;;;;;13.45;12.15;;;19.20;47.50;;;;;;5047163;28;20207;-69
2023/03/04 04:29:51;;;;;;;13.10;11.80;;;19.20;47.50;;;;;;5043711;28;20294;-68
2023/03/04 04:32:17;;;;;;;13.00;11.70;;;19.10;47.40;;;;;;5035951;28;20210;-69
2023/03/04 04:34:43;;;;;;;12.52;11.30;;;19.10;47.40;;;;;;5069442;28;20748;-68
2023/03/04 04:37:09;;;;;;;13.07;11.80;;;19.20;47.40;;;;;;5057675;28;20241;-68
2023/03/04 04:39:35;;;;;;;13.35;11.95;;;19.20;47.50;;;;;;5027559;28;20192;-69
2023/03/04 04:42:01;;;;;;;13.23;11.93;;;19.10;47.40;;;;;;5067267;28;20232;-69
2023/03/04 04:44:26;;;;;;;13.15;11.85;;;19.10;47.40;;;;;;5068972;28;20236;-68
2023/03/04 04:46:52;;;;;;;12.73;11.43;;;19.10;47.40;;;;;;5067882;28;20198;-68
2023/03/04 04:49:18;;;;;;;13.15;11.80;;;19.10;47.40;;;;;;5040927;28;20206;-68
2023/03/04 04:51:44;;;;;;;12.73;11.50;;;19.10;47.40;;;;;;5040652;28;20199;-69
2023/03/04 04:54:12;;;;;;;12.23;10.93;;;19.10;47.40;;;;;;5026830;28;20233;-69
2023/03/04 04:56:38;;;;;;;14.20;11.73;;;19.10;47.30;;;;;;5031999;28;20187;-69
2023/03/04 04:59:07;;;;;;;12.90;11.57;;;19.20;47.40;;;;;;5080222;22;20234;-69
2023/03/04 05:01:34;;;;;;;13.75;12.35;;;19.10;47.20;;;;;;5032563;28;20187;-69
2023/03/04 05:03:59;;;;;;;13.07;11.77;;;19.10;47.20;;;;;;5032073;28;20187;-69
2023/03/04 05:06:26;;;;;;;13.02;11.65;;;19.10;47.20;;;;;;5031846;28;20293;-69
2023/03/04 05:08:53;;;;;;;13.57;12.27;;;19.10;47.20;;;;;;5025991;28;20215;-68
2023/03/04 05:11:20;;;;;;;13.63;12.32;;;19.10;47.20;;;;;;5031765;28;20615;-69
2023/03/04 05:13:47;;;;;;;12.63;11.32;;;19.10;47.30;;;;;;5014834;28;20226;-69
2023/03/04 05:16:15;;;;;;;13.82;12.35;;;19.10;47.20;;;;;;5023427;28;20198;-69
2023/03/04 05:18:41;;;;;;;13.38;11.93;;;19.10;47.20;;;;;;5015056;28;20262;-69
2023/03/04 05:21:07;;;;;;;12.98;11.65;;;19.10;47.20;;;;;;5015146;28;20198;-69
2023/03/04 05:23:37;;;;;;;12.25;10.95;;;19.10;47.20;;;;;;5014996;28;20191;-69
2023/03/04 05:26:06;;;;;;;12.90;11.60;;;19.10;47.20;;;;;;5031155;28;20191;-69
2023/03/04 05:28:32;;;;;;;12.88;11.48;;;19.10;47.20;;;;;;5031534;28;20592;-69
2023/03/04 05:30:59;;;;;;;12.85;11.55;;;19.10;47.20;;;;;;5014973;28;20276;-69
2023/03/04 05:33:24;;;;;;;12.73;11.25;;;19.10;47.20;;;;;;5030699;28;20251;-69
2023/03/04 05:35:50;;;;;;;11.23;10.13;;;19.10;47.20;;;;;;5014577;28;20190;-69
2023/03/04 05:38:18;;;;;;;12.43;11.13;;;19.10;47.20;;;;;;5031158;28;20203;-69
2023/03/04 05:40:46;;;;;;;12.68;11.38;;;19.10;47.10;;;;;;5031285;28;20184;-69
2023/03/04 05:43:12;;;;;;;13.80;12.40;;;19.10;47.10;;;;;;5014567;28;20190;-69
2023/03/04 05:45:39;;;;;;;11.77;10.60;;;19.10;47.10;;;;;;5014142;28;20222;-68
2023/03/04 05:48:06;;;;;;;13.10;11.77;;;19.10;47.10;;;;;;5014437;28;20203;-69
2023/03/04 05:50:33;;;;;;;13.27;11.88;;;19.10;47.20;;;;;;5031048;28;20195;-69
2023/03/04 05:52:59;;;;;;;12.43;11.15;;;19.10;47.10;;;;;;5014378;28;20222;-69
2023/03/04 05:55:27;;;;;;;12.45;11.15;;;19.10;47.00;;;;;;5030795;28;20568;-69
2023/03/04 05:57:53;;;;;;;14.02;12.55;;;19.10;47.00;;;;;;5014200;28;20226;-68
2023/03/04 06:00:19;;;;;;;13.63;12.23;;;19.00;46.90;;;;;;5014531;28;20187;-69
2023/03/04 06:02:45;;;;;;;13.70;12.30;;;19.10;47.00;;;;;;5014577;28;20659;-69
2023/03/04 06:05:14;;;;;;;13.80;12.48;;;19.00;47.00;;;;;;5014334;28;20198;-69
2023/03/04 06:07:44;;;;;;;13.15;11.75;;;19.10;47.10;;;;;;5030942;28;20242;-69
2023/03/04 06:10:13;;;;;;;11.85;10.68;;;19.10;47.00;;;;;;5030902;28;20646;-69
2023/03/04 06:12:40;;;;;;;12.65;11.35;;;19.00;46.90;;;;;;5030184;28;20215;-69
2023/03/04 06:15:08;;;;;;;12.05;10.85;;;19.00;46.90;;;;;;5030449;28;20266;-70
2023/03/04 06:17:34;;;;;;;11.60;10.40;;;19.10;47.10;;;;;;5030887;28;20219;-71
2023/03/04 06:20:00;;;;;;;12.80;11.07;;;19.10;47.10;;;;;;5013808;28;20187;-71
2023/03/04 06:22:26;;;;;;;12.20;10.95;;;19.00;47.00;;;;;;5013660;28;20194;-71
2023/03/04 06:24:52;;;;;;;11.65;10.45;;;19.10;47.10;;;;;;5031816;28;20195;-71
2023/03/04 06:27:18;;;;;;;11.98;10.77;;;19.10;47.10;;;;;;5029696;28;20201;-69
2023/03/04 06:29:43;;;;;;;11.75;10.52;;;19.00;47.00;;;;;;5030294;28;20237;-70
2023/03/04 06:32:09;;;;;;;11.43;10.32;;;19.00;47.00;;;;;;5030100;28;20207;-70
2023/03/04 06:34:36;;;;;;;12.43;11.18;;;19.10;47.00;;;;;;5030378;28;20251;-70
2023/03/04 06:37:02;;;;;;;12.65;11.35;;;19.10;47.00;;;;;;5013779;28;20195;-70
2023/03/04 06:39:27;;;;;;;12.43;11.23;;;19.00;46.90;;;;;;5030360;28;20286;-70
2023/03/04 06:41:53;;;;;;;12.27;11.02;;;19.10;47.00;;;;;;5024976;28;20203;-70
2023/03/04 06:44:19;;;;;;;11.95;10.75;;;19.10;47.00;;;;;;5030835;28;20191;-70
2023/03/04 06:46:45;;;;;;;12.90;11.55;;;19.00;46.90;;;;;;5034463;28;20577;-70
2023/03/04 06:49:11;;;;;;;13.80;11.70;;;19.00;46.90;;;;;;5017519;28;20218;-70
2023/03/04 06:51:36;;;;;;;12.82;11.32;;;19.00;46.80;;;;;;5018081;28;20183;-70
2023/03/04 06:54:02;;;;;;;12.88;11.48;;;19.00;46.90;;;;;;5017866;28;20183;-70
2023/03/04 06:56:28;;;;;;;12.77;11.32;;;19.00;46.80;;;;;;5034224;28;20187;-70
2023/03/04 06:58:54;;;;;;;13.02;11.27;;;19.00;46.90;;;;;;5034429;28;20214;-69
2023/03/04 07:01:24;;;;;;;12.38;11.13;;;19.00;46.80;;;;;;5051443;28;20187;-69
2023/03/04 07:03:53;;;;;;;12.32;11.07;;;19.00;46.90;;;;;;5034372;28;20191;-70
2023/03/04 07:06:24;;;;;;;12.50;11.20;;;19.00;46.80;;;;;;5034776;28;20186;-70
2023/03/04 07:08:51;;;;;;;12.18;10.77;;;19.00;46.90;;;;;;5034425;28;20268;-71
2023/03/04 07:11:20;;;;;;;11.80;10.60;;;19.00;46.90;;;;;;5034628;28;20183;-69
2023/03/04 07:13:47;;;;;;;12.10;10.90;;;19.00;46.90;;;;;;5034135;28;20214;-69
2023/03/04 07:16:17;;;;;;;11.95;10.60;;;19.00;46.80;;;;;;5035319;28;20259;-69
2023/03/04 07:18:44;;;;;;;11.27;10.18;;;19.10;46.90;;;;;;5051085;28;20211;-69
2023/03/04 07:21:11;;;;;;;11.68;10.48;;;19.10;46.90;;;;;;5017859;28;20183;-70
2023/03/04 07:23:37;;;;;;;12.07;10.50;;;19.10;46.90;;;;;;5035448;28;20187;-69
2023/03/04 07:26:04;;;;;;;12.68;11.38;;;19.10;46.90;;;;;;5051195;28;20677;-69
2023/03/04 07:28:30;;;;;;;11.52;10.38;;;19.10;46.90;;;;;;5017897;28;20207;-69
2023/03/04 07:30:56;;;;;;;11.77;10.57;;;19.10;46.80;;;;;;5033073;28;20186;-70
2023/03/04 07:33:22;;;;;;;12.32;11.10;;;19.00;46.80;;;;;;5034101;28;20308;-70
2023/03/04 07:35:47;;;;;;;12.40;11.13;;;19.10;46.90;;;;;;5033845;28;20191;-69
2023/03/04 07:38:13;;;;;;;12.30;11.05;;;19.00;46.80;;;;;;5026880;28;20207;-70
2023/03/04 07:40:39;;;;;;;13.13;11.55;;;19.10;46.90;;;;;;5042410;28;20228;-70
2023/03/04 07:43:05;;;;;;;12.52;11.23;;;19.10;47.00;;;;;;5033842;28;20183;-69
2023/03/04 07:45:30;;;;;;;12.75;11.45;;;19.10;46.90;;;;;;5032515;28;20540;-69
2023/03/04 07:47:59;;;;;;;12.90;11.48;;;19.00;46.90;;;;;;5017047;28;20237;-70
2023/03/04 07:50:25;;;;;;;12.48;11.27;;;19.10;47.00;;;;;;5033943;28;20187;-69
2023/03/04 07:52:51;;;;;;;11.27;10.18;;;19.10;47.00;;;;;;5033543;28;20211;-69
2023/03/04 07:55:17;;;;;;;11.65;10.45;;;19.10;47.10;;;;;;5050536;28;20616;-69
2023/03/04 07:57:46;;;;;;;11.60;10.45;;;19.00;46.90;;;;;;5032760;28;20310;-70
2023/03/04 08:00:15;;;;;;;11.95;10.68;;;19.10;47.10;;;;;;5017254;28;20183;-69
2023/03/04 08:02:42;;;;;;;11.35;10.27;;;19.00;46.90;;;;;;5033682;28;20194;-70
2023/03/04 08:05:08;;;;;;;11.73;10.55;;;19.00;46.90;;;;;;5025272;28;20184;-69
2023/03/04 08:07:34;;;;;;;11.57;10.38;;;19.10;47.00;;;;;;5034902;28;20539;-69
2023/03/04 08:10:00;;;;;;;11.65;10.43;;;19.10;47.10;;;;;;5017205;28;20195;-70
2023/03/04 08:12:26;;;;;;;12.00;10.50;;;19.10;47.10;;;;;;5016565;28;20206;-69
2023/03/04 08:14:52;;;;;;;11.43;10.35;;;19.10;47.10;;;;;;5033568;28;20179;-70
2023/03/04 08:17:19;;;;;;;11.52;10.32;;;19.10;47.10;;;;;;5033396;28;20221;-70
2023/03/04 08:19:44;;;;;;;11.18;10.07;;;19.10;47.10;;;;;;5034592;28;20183;-70
2023/03/04 08:22:11;;;;;;;11.20;10.10;;;19.10;47.10;;;;;;5049668;28;20174;-68
2023/03/04 08:24:36;;;;;;;12.32;10.65;;;19.10;47.20;;;;;;5033218;28;20274;-70
2023/03/04 08:27:03;;;;;;;11.38;10.27;;;19.10;47.10;;;;;;5032944;28;20329;-70
2023/03/04 08:29:28;;;;;;;11.80;10.60;;;19.10;47.20;;;;;;5033352;28;20207;-70
2023/03/04 08:31:55;;;;;;;11.52;10.32;;;19.10;47.20;;;;;;5033017;28;20222;-69
2023/03/04 08:34:24;;;;;;;11.95;10.38;;;19.10;47.20;;;;;;5045597;28;20180;-69
2023/03/04 08:36:50;;;;;;;11.77;10.57;;;19.10;47.20;;;;;;5046357;28;20262;-70
2023/03/04 08:39:17;;;;;;;13.82;10.25;;;19.10;47.20;;;;;;5032978;28;20206;-70
2023/03/04 08:41:44;;;;;;;10.68;9.57;;;19.10;47.20;;;;;;5032930;28;20558;-70
2023/03/04 08:44:10;;;;;;;12.02;10.73;;;19.10;47.30;;;;;;5032802;28;20215;-70
2023/03/04 08:46:39;;;;;;;12.27;10.95;;;19.20;47.40;;;;;;5032745;28;20179;-69
2023/03/04 08:49:05;;;;;;;9.98;8.98;;;19.20;47.40;;;;;;5033828;28;20207;-71
2023/03/04 08:51:34;;;;;;;10.55;9.50;;;19.20;47.40;;;;;;5032925;28;20187;-70
2023/03/04 08:54:03;;;;;;;11.80;9.60;;;19.20;47.40;;;;;;5031525;28;20250;-70
2023/03/04 08:56:29;;;;;;;10.20;9.15;;;19.20;47.40;;;;;;5049264;28;20602;-70
2023/03/04 08:58:55;;;;;;;11.10;9.90;;;19.20;47.40;;;;;;5031640;28;20215;-71
2023/03/04 09:01:21;;;;;;;10.60;9.55;;;19.20;47.40;;;;;;5033986;28;20179;-69
2023/03/04 09:03:47;;;;;;;10.13;9.10;;;19.10;47.40;;;;;;5015797;28;20187;-69
2023/03/04 09:06:16;;;;;;;9.93;8.93;;;19.10;47.40;;;;;;5015678;28;20195;-70
2023/03/04 09:08:44;;;;;;;11.05;8.93;;;19.20;47.40;;;;;;5032367;28;20206;-69
2023/03/04 09:11:11;;;;;;;10.52;9.20;;;19.20;47.50;;;;;;5032380;28;20202;-70
2023/03/04 09:13:37;;;;;;;10.43;9.40;;;19.20;47.50;;;;;;5031809;28;20236;-70
2023/03/04 09:16:09;;;;;;;9.20;8.30;;;19.20;47.50;;;;;;5015729;28;20623;-69
2023/03/04 09:18:34;;;;;;;9.73;8.45;;;19.20;47.50;;;;;;5033291;28;20207;-69
2023/03/04 09:21:00;;;;;;;9.70;8.70;;;19.20;47.50;;;;;;5031950;28;20191;-70
2023/03/04 09:23:26;;;;;;;10.05;8.85;;;19.20;47.50;;;;;;5032228;28;20195;-70
2023/03/04 09:25:51;;;;;;;9.93;9.02;;;19.20;47.50;;;;;;5048710;28;20199;-70
2023/03/04 09:28:18;;;;;;;10.25;9.00;;;19.20;47.50;;;;;;5031815;28;20234;-69
2023/03/04 09:30:45;;;;;;;9.68;8.75;;;19.20;47.50;;;;;;5033111;28;20193;-70
2023/03/04 09:33:12;;;;;;;9.30;8.40;;;19.20;47.50;;;;;;5015356;28;20199;-69
2023/03/04 09:35:38;;;;;;;8.93;8.05;;;19.20;47.50;;;;;;5031690;28;20233;-69
2023/03/04 09:38:04;;;;;;;9.23;8.32;;;19.20;47.50;;;;;;5015366;28;20211;-69
2023/03/04 09:40:45;;;;;;;8.80;8.00;;;19.20;47.50;;;;;;5032858;28;20188;-69
2023/03/04 09:43:28;;;;;;;8.90;8.10;;;19.20;47.50;;;;;;5031566;28;20183;-69
2023/03/04 09:46:00;;;;;;;8.57;7.57;;;19.20;47.50;;;;;;5031460;28;20191;-70
2023/03/04 09:48:42;;;;;;;8.70;7.80;;;19.20;47.50;;;;;;5032589;28;20297;-69
2023/03/04 09:51:21;;;;;;;8.32;7.47;;;19.30;47.60;;;;;;5032800;28;20202;-69
2023/03/04 09:54:23;;;;;;;8.77;7.88;;;19.30;47.60;;;;;;5032584;28;20583;-69
2023/03/04 09:56:58;;;;;;;8.13;7.38;;;19.20;47.50;;;;;;5019506;28;20207;-70
2023/03/04 10:00:06;;;;;;;8.35;7.55;;;19.30;47.60;;;;;;5008151;28;20207;-69
2023/03/04 10:03:20;;;;;;;8.40;7.60;;;19.30;47.60;;;;;;5027468;28;20275;-69
2023/03/04 10:06:04;;;;;;;9.25;8.32;;;19.20;47.60;;;;;;5041116;28;20349;-69
2023/03/04 10:08:55;;;;;;;9.27;7.32;;;19.30;47.70;;;;;;5025405;28;20709;-69
2023/03/04 10:11:38;;;;;;;8.02;7.22;;;19.30;47.70;;;;;;5031624;28;20209;-70
2023/03/04 10:14:33;;;;;;;8.50;7.60;;;19.30;47.80;;;;;;5014745;28;20231;-69
2023/03/04 10:17:18;;;;;;;7.95;7.18;;;19.20;47.70;;;;;;5045542;28;20187;-69
2023/03/04 10:19:55;;;;;;;9.10;8.20;;;19.20;47.80;;;;;;5014792;28;20187;-69
2023/03/04 10:22:41;;;;;;;7.50;6.80;;;19.20;47.80;;;;;;5032186;28;20198;-70
2023/03/04 10:25:16;;;;;;;8.65;7.47;;;19.30;47.70;;;;;;5030648;28;20217;-70
2023/03/04 10:27:48;;;;;;;8.30;7.50;;;19.20;47.70;;;;;;5030986;28;20222;-70
2023/03/04 10:30:40;;;;;;;8.32;7.53;;;19.20;47.80;;;;;;5028006;28;20192;-70
2023/03/04 10:33:31;;;;;;;7.78;6.97;;;19.30;47.80;;;;;;5010846;28;20242;-70
2023/03/04 10:36:07;;;;;;;7.53;6.82;;;19.20;47.80;;;;;;5031039;28;20179;-70
2023/03/04 10:38:38;;;;;;;7.65;6.95;;;19.30;47.80;;;;;;5030715;28;20217;-70
2023/03/04 10:41:18;;;;;;;7.68;6.82;;;19.30;47.80;;;;;;5030797;28;20183;-69
2023/03/04 10:43:59;;;;;;;7.00;6.38;;;19.30;47.80;;;;;;5014451;28;20179;-70
2023/03/04 10:46:26;;;;;;;7.13;6.53;;;19.30;47.80;;;;;;5030626;28;20277;-70
2023/03/04 10:48:53;;;;;;;7.18;6.47;;;19.30;47.90;;;;;;5029916;28;20191;-70
2023/03/04 10:51:23;;;;;;;7.80;7.10;;;19.30;47.80;;;;;;5030543;28;20244;-70
2023/03/04 10:54:25;;;;;;;7.28;6.57;;;19.30;47.90;;;;;;5046620;28;20246;-69
2023/03/04 10:57:01;;;;;;;7.80;7.10;;;19.20;47.80;;;;;;5016572;28;20293;-72
2023/03/04 10:59:49;;;;;;;8.30;7.50;;;19.30;47.90;;;;;;5029716;28;20214;-72
2023/03/04 11:02:26;;;;;;;7.55;6.75;;;19.20;47.80;;;;;;5046625;28;20193;-71
2023/03/04 11:05:05;;;;;;;7.20;6.60;;;19.20;47.80;;;;;;5030032;28;20202;-71
2023/03/04 11:07:38;;;;;;;6.78;6.18;;;19.20;47.80;;;;;;5013661;28;20219;-72
2023/03/04 11:10:35;;;;;;;7.50;6.80;;;19.20;47.90;;;;;;5030284;28;20187;-72
2023/03/04 11:13:14;;;;;;;6.90;6.30;;;19.20;47.80;;;;;;5027906;28;20203;-72
2023/03/04 11:16:04;;;;;;;7.90;6.90;;;19.30;47.90;;;;;;5044420;28;20191;-72
2023/03/04 11:18:52;;;;;;;8.00;7.28;;;19.20;47.90;;;;;;5029911;28;20627;-72
2023/03/04 11:21:27;;;;;;;7.30;6.65;;;19.30;47.90;;;;;;5027571;28;20194;-72
2023/03/04 11:24:00;;;;;;;7.30;6.57;;;19.30;47.90;;;;;;5029857;28;20208;-72
2023/03/04 11:26:46;;;;;;;6.85;6.10;;;19.30;47.90;;;;;;5013404;28;20183;-72
2023/03/04 11:29:27;;;;;;;7.05;6.38;;;19.20;47.80;;;;;;5046206;28;20219;-73
2023/03/04 11:32:04;;;;;;;7.03;6.32;;;19.20;47.90;;;;;;5014793;28;20657;-71
2023/03/04 11:35:12;;;;;;;6.55;5.93;;;19.20;47.90;;;;;;5017106;28;20651;-72
2023/03/04 11:38:01;;;;;;;7.10;6.50;;;19.30;47.90;;;;;;5030929;28;20252;-73
2023/03/04 11:40:47;;;;;;;7.50;6.22;;;19.30;48.00;;;;;;5032149;28;20183;-72
2023/03/04 11:43:20;;;;;;;7.10;6.43;;;19.20;48.40;;;;;;5074352;22;20222;-67
2023/03/04 11:46:10;;;;;;;6.97;6.35;;;19.30;48.00;;;;;;5030753;28;20172;-67
2023/03/04 11:49:03;;;;;;;6.68;6.07;;;19.20;47.90;;;;;;5034688;28;20203;-67
2023/03/04 11:51:50;;;;;;;6.72;6.13;;;19.30;48.00;;;;;;5029643;28;20270;-67
2023/03/04 11:55:12;;;;;;;7.13;5.90;;;19.30;48.00;;;;;;5032812;28;20214;-67
2023/03/04 11:58:12;;;;;;;6.53;5.93;;;19.30;48.00;;;;;;4948588;28;20202;-67
2023/03/04 12:00:52;;;;;;;6.43;5.82;;;19.30;48.00;;;;;;5033679;28;20285;-67
2023/03/04 12:03:33;;;;;;;6.20;5.60;;;19.30;48.00;;;;;;5014266;28;20198;-67
2023/03/04 12:06:34;;;;;;;6.60;6.00;;;19.30;48.00;;;;;;5014796;28;20180;-68
2023/03/04 12:09:22;;;;;;;6.53;5.90;;;19.30;48.00;;;;;;5030878;28;20208;-67
2023/03/04 12:12:18;;;;;;;6.43;5.82;;;19.30;48.00;;;;;;5025457;28;20531;-67
2023/03/04 12:15:21;;;;;;;7.22;6.53;;;19.20;47.90;;;;;;5031544;28;20187;-67
2023/03/04 12:18:21;;;;;;;6.70;6.00;;;19.30;48.00;;;;;;5026608;28;20289;-68
2023/03/04 12:21:24;;;;;;;6.68;5.93;;;19.20;47.90;;;;;;5028526;28;20659;-68
2023/03/04 12:24:14;;;;;;;8.68;6.05;;;19.20;48.00;;;;;;5001634;28;20223;-68
2023/03/04 12:27:00;;;;;;;6.07;5.47;;;19.20;48.00;;;;;;5030355;28;20191;-68
2023/03/04 12:29:35;;;;;;;6.13;5.60;;;19.20;47.90;;;;;;5030051;28;20661;-68
2023/03/04 12:32:20;;;;;;;6.32;5.72;;;19.20;47.90;;;;;;5014206;28;20241;-68
2023/03/04 12:35:23;;;;;;;6.18;5.57;;;19.20;47.90;;;;;;5048563;28;20213;-68
2023/03/04 12:38:26;;;;;;;6.72;5.95;;;19.20;47.80;;;;;;5015540;28;20202;-67
2023/03/04 12:41:35;;;;;;;5.75;5.18;;;19.20;47.50;;;;;;5045745;28;20198;-68
2023/03/04 12:44:19;;;;;;;6.63;5.95;;;19.30;47.50;;;;;;5028021;28;20279;-67
2023/03/04 12:47:18;;;;;;;5.90;5.28;;;19.20;47.50;;;;;;5010813;28;20187;-67
2023/03/04 12:50:23;;;;;;;6.20;5.60;;;19.30;47.60;;;;;;5028805;28;20179;-67
2023/03/04 12:53:16;;;;;;;6.43;5.53;;;19.20;47.50;;;;;;4996824;28;20234;-70
2023/03/04 12:55:45;;;;;;;6.15;5.57;;;19.20;47.40;;;;;;5014800;28;20262;-68